sensor_id;sensor_type;location;lat;lon;timestamp;temperature;humidity
65770;DHT22;52512;47.650;8.578;2022-08-21T00:01:47;17.80;99.90
65770;DHT22;52512;47.650;8.578;2022-08-21T00:04:13;17.80;99.90
65770;DHT22;52512;47.650;8.578;2022-08-21T00:06:39;17.80;99.90
65770;DHT22;52512;47.650;8.578;2022-08-21T00:09:07;17.80;99.90
65770;DHT22;52512;47.650;8.578;2022-08-21T00:11:35;17.80;99.90
65770;DHT22;52512;47.650;8.578;2022-08-21T00:14:00;17.80;99.90
65770;DHT22;52512;47.650;8.578;2022-08-21T00:16:26;17.80;99.90
65770;DHT22;52512;47.650;8.578;2022-08-21T00:18:52;17.70;99.90
65770;DHT22;52512;47.650;8.578;2022-08-21T00:21:18;17.70;99.90
65770;DHT22;52512;47.650;8.578;2022-08-21T00:23:43;17.70;99.90
65770;DHT22;52512;47.650;8.578;2022-08-21T00:26:09;17.70;99.90
65770;DHT22;52512;47.650;8.578;2022-08-21T00:28:35;17.70;99.90
65770;DHT22;52512;47.650;8.578;2022-08-21T00:31:01;17.70;99.90
65770;DHT22;52512;47.650;8.578;2022-08-21T00:33:30;17.70;99.90
65770;DHT22;52512;47.650;8.578;2022-08-21T00:35:56;17.70;99.90
65770;DHT22;52512;47.650;8.578;2022-08-21T00:38:21;17.70;99.90
65770;DHT22;52512;47.650;8.578;2022-08-21T00:40:57;17.60;99.90
65770;DHT22;52512;47.650;8.578;2022-08-21T00:43:27;17.60;99.90
65770;DHT22;52512;47.650;8.578;2022-08-21T00:45:54;17.60;99.90
65770;DHT22;52512;47.650;8.578;2022-08-21T00:48:24;17.60;99.90
65770;DHT22;52512;47.650;8.578;2022-08-21T00:51:02;17.50;99.90
65770;DHT22;52512;47.650;8.578;2022-08-21T00:53:29;17.50;99.90
65770;DHT22;52512;47.650;8.578;2022-08-21T00:55:57;17.60;99.90
65770;DHT22;52512;47.650;8.578;2022-08-21T00:58:24;17.60;99.90
65770;DHT22;52512;47.650;8.578;2022-08-21T01:00:51;17.60;99.90
65770;DHT22;52512;47.650;8.578;2022-08-21T01:03:21;17.60;99.90
65770;DHT22;52512;47.650;8.578;2022-08-21T01:05:47;17.60;99.90
65770;DHT22;52512;47.650;8.578;2022-08-21T01:08:14;17.60;99.90
65770;DHT22;52512;47.650;8.578;2022-08-21T01:10:41;17.60;99.90
65770;DHT22;52512;47.650;8.578;2022-08-21T01:13:08;17.60;99.90
65770;DHT22;52512;47.650;8.578;2022-08-21T01:15:38;17.60;99.90
65770;DHT22;52512;47.650;8.578;2022-08-21T01:18:06;17.60;99.90
65770;DHT22;52512;47.650;8.578;2022-08-21T01:20:34;17.70;99.90
65770;DHT22;52512;47.650;8.578;2022-08-21T01:23:01;17.60;99.90
65770;DHT22;52512;47.650;8.578;2022-08-21T01:25:27;17.60;99.90
65770;DHT22;52512;47.650;8.578;2022-08-21T01:27:53;17.60;99.90
65770;DHT22;52512;47.650;8.578;2022-08-21T01:30:23;17.60;99.90
65770;DHT22;52512;47.650;8.578;2022-08-21T01:32:49;17.60;99.90
65770;DHT22;52512;47.650;8.578;2022-08-21T01:35:17;17.70;99.90
65770;DHT22;52512;47.650;8.578;2022-08-21T01:37:44;17.70;99.90
65770;DHT22;52512;47.650;8.578;2022-08-21T01:40:10;17.70;99.90
65770;DHT22;52512;47.650;8.578;2022-08-21T01:42:38;17.70;99.90
65770;DHT22;52512;47.650;8.578;2022-08-21T01:45:05;17.70;99.90
65770;DHT22;52512;47.650;8.578;2022-08-21T01:47:31;17.70;99.90
65770;DHT22;52512;47.650;8.578;2022-08-21T01:49:58;17.70;99.90
65770;DHT22;52512;47.650;8.578;2022-08-21T01:52:24;17.70;99.90
65770;DHT22;52512;47.650;8.578;2022-08-21T01:54:50;17.70;99.90
65770;DHT22;52512;47.650;8.578;2022-08-21T01:57:16;17.70;99.90
65770;DHT22;52512;47.650;8.578;2022-08-21T01:59:42;17.70;99.90
65770;DHT22;52512;47.650;8.578;2022-08-21T02:02:08;17.70;99.90
65770;DHT22;52512;47.650;8.578;2022-08-21T02:04:33;17.70;99.90
65770;DHT22;52512;47.650;8.578;2022-08-21T02:07:00;17.70;99.90
65770;DHT22;52512;47.650;8.578;2022-08-21T02:09:26;17.70;99.90
65770;DHT22;52512;47.650;8.578;2022-08-21T02:11:52;17.70;99.90
65770;DHT22;52512;47.650;8.578;2022-08-21T02:14:18;17.70;99.90
65770;DHT22;52512;47.650;8.578;2022-08-21T02:16:44;17.70;99.90
65770;DHT22;52512;47.650;8.578;2022-08-21T02:19:11;17.70;99.90
65770;DHT22;52512;47.650;8.578;2022-08-21T02:21:37;17.70;99.90
65770;DHT22;52512;47.650;8.578;2022-08-21T02:24:03;17.70;99.90
65770;DHT22;52512;47.650;8.578;2022-08-21T02:26:29;17.70;99.90
65770;DHT22;52512;47.650;8.578;2022-08-21T02:28:54;17.70;99.90
65770;DHT22;52512;47.650;8.578;2022-08-21T02:31:20;17.70;99.90
65770;DHT22;52512;47.650;8.578;2022-08-21T02:33:46;17.70;99.90
65770;DHT22;52512;47.650;8.578;2022-08-21T02:36:12;17.70;99.90
65770;DHT22;52512;47.650;8.578;2022-08-21T02:38:39;17.70;99.90
65770;DHT22;52512;47.650;8.578;2022-08-21T02:41:07;17.70;99.90
65770;DHT22;52512;47.650;8.578;2022-08-21T02:43:33;17.70;99.90
65770;DHT22;52512;47.650;8.578;2022-08-21T02:45:59;17.70;99.90
65770;DHT22;52512;47.650;8.578;2022-08-21T02:48:28;17.70;99.90
65770;DHT22;52512;47.650;8.578;2022-08-21T02:53:28;17.70;99.90
65770;DHT22;52512;47.650;8.578;2022-08-21T02:55:55;17.70;99.90
65770;DHT22;52512;47.650;8.578;2022-08-21T02:58:26;17.70;99.90
65770;DHT22;52512;47.650;8.578;2022-08-21T03:00:53;17.70;99.90
65770;DHT22;52512;47.650;8.578;2022-08-21T03:03:19;17.70;99.90
65770;DHT22;52512;47.650;8.578;2022-08-21T03:05:47;17.70;99.90
65770;DHT22;52512;47.650;8.578;2022-08-21T03:08:13;17.70;99.90
65770;DHT22;52512;47.650;8.578;2022-08-21T03:10:43;17.70;99.90
65770;DHT22;52512;47.650;8.578;2022-08-21T03:13:09;17.70;99.90
65770;DHT22;52512;47.650;8.578;2022-08-21T03:15:35;17.70;99.90
65770;DHT22;52512;47.650;8.578;2022-08-21T03:18:02;17.70;99.90
65770;DHT22;52512;47.650;8.578;2022-08-21T03:20:29;17.70;99.90
65770;DHT22;52512;47.650;8.578;2022-08-21T03:22:56;17.70;99.90
65770;DHT22;52512;47.650;8.578;2022-08-21T03:25:23;17.70;99.90
65770;DHT22;52512;47.650;8.578;2022-08-21T03:27:49;17.70;99.90
65770;DHT22;52512;47.650;8.578;2022-08-21T03:30:17;17.70;99.90
65770;DHT22;52512;47.650;8.578;2022-08-21T03:32:45;17.70;99.90
65770;DHT22;52512;47.650;8.578;2022-08-21T03:35:11;17.70;99.90
65770;DHT22;52512;47.650;8.578;2022-08-21T03:37:38;17.70;99.90
65770;DHT22;52512;47.650;8.578;2022-08-21T03:40:06;17.70;99.90
65770;DHT22;52512;47.650;8.578;2022-08-21T03:42:32;17.70;99.90
65770;DHT22;52512;47.650;8.578;2022-08-21T03:44:58;17.70;99.90
65770;DHT22;52512;47.650;8.578;2022-08-21T03:47:24;17.70;99.90
65770;DHT22;52512;47.650;8.578;2022-08-21T03:49:49;17.70;99.90
65770;DHT22;52512;47.650;8.578;2022-08-21T03:52:16;17.70;99.90
65770;DHT22;52512;47.650;8.578;2022-08-21T03:54:42;17.70;99.90
65770;DHT22;52512;47.650;8.578;2022-08-21T03:57:08;17.70;99.90
65770;DHT22;52512;47.650;8.578;2022-08-21T03:59:35;17.70;99.90
65770;DHT22;52512;47.650;8.578;2022-08-21T04:02:04;17.70;99.90
65770;DHT22;52512;47.650;8.578;2022-08-21T04:04:33;17.70;99.90
65770;DHT22;52512;47.650;8.578;2022-08-21T04:06:59;17.70;99.90
65770;DHT22;52512;47.650;8.578;2022-08-21T04:09:26;17.70;99.90
65770;DHT22;52512;47.650;8.578;2022-08-21T04:11:52;17.70;99.90
65770;DHT22;52512;47.650;8.578;2022-08-21T04:14:18;17.70;99.90
65770;DHT22;52512;47.650;8.578;2022-08-21T04:16:44;17.70;99.90
65770;DHT22;52512;47.650;8.578;2022-08-21T04:19:11;17.70;99.90
65770;DHT22;52512;47.650;8.578;2022-08-21T04:21:38;17.70;99.90
65770;DHT22;52512;47.650;8.578;2022-08-21T04:24:05;17.70;99.90
65770;DHT22;52512;47.650;8.578;2022-08-21T04:26:33;17.70;99.90
65770;DHT22;52512;47.650;8.578;2022-08-21T04:29:00;17.70;99.90
65770;DHT22;52512;47.650;8.578;2022-08-21T04:31:26;17.70;99.90
65770;DHT22;52512;47.650;8.578;2022-08-21T04:33:54;17.70;99.90
65770;DHT22;52512;47.650;8.578;2022-08-21T04:36:20;17.70;99.90
65770;DHT22;52512;47.650;8.578;2022-08-21T04:38:45;17.70;99.90
65770;DHT22;52512;47.650;8.578;2022-08-21T04:41:11;17.70;99.90
65770;DHT22;52512;47.650;8.578;2022-08-21T04:43:38;17.70;99.90
65770;DHT22;52512;47.650;8.578;2022-08-21T04:46:04;17.70;99.90
65770;DHT22;52512;47.650;8.578;2022-08-21T04:48:31;17.70;99.90
65770;DHT22;52512;47.650;8.578;2022-08-21T04:51:14;17.70;99.90
65770;DHT22;52512;47.650;8.578;2022-08-21T04:53:54;17.70;99.90
65770;DHT22;52512;47.650;8.578;2022-08-21T04:56:25;17.70;99.90
65770;DHT22;52512;47.650;8.578;2022-08-21T04:58:53;17.70;99.90
65770;DHT22;52512;47.650;8.578;2022-08-21T05:01:22;17.70;99.90
65770;DHT22;52512;47.650;8.578;2022-08-21T05:03:51;17.70;99.90
65770;DHT22;52512;47.650;8.578;2022-08-21T05:06:18;17.70;99.90
65770;DHT22;52512;47.650;8.578;2022-08-21T05:08:45;17.70;99.90
65770;DHT22;52512;47.650;8.578;2022-08-21T05:11:12;17.70;99.90
65770;DHT22;52512;47.650;8.578;2022-08-21T05:13:38;17.70;99.90
65770;DHT22;52512;47.650;8.578;2022-08-21T05:16:06;17.70;99.90
65770;DHT22;52512;47.650;8.578;2022-08-21T05:18:31;17.70;99.90
65770;DHT22;52512;47.650;8.578;2022-08-21T05:20:57;17.70;99.90
65770;DHT22;52512;47.650;8.578;2022-08-21T05:23:23;17.70;99.90
65770;DHT22;52512;47.650;8.578;2022-08-21T05:25:48;17.70;99.90
65770;DHT22;52512;47.650;8.578;2022-08-21T05:28:14;17.70;99.90
65770;DHT22;52512;47.650;8.578;2022-08-21T05:30:39;17.70;99.90
65770;DHT22;52512;47.650;8.578;2022-08-21T05:33:06;17.70;99.90
65770;DHT22;52512;47.650;8.578;2022-08-21T05:35:32;17.70;99.90
65770;DHT22;52512;47.650;8.578;2022-08-21T05:37:59;17.70;99.90
65770;DHT22;52512;47.650;8.578;2022-08-21T05:40:26;17.70;99.90
65770;DHT22;52512;47.650;8.578;2022-08-21T05:42:53;17.70;99.90
65770;DHT22;52512;47.650;8.578;2022-08-21T05:45:19;17.70;99.90
65770;DHT22;52512;47.650;8.578;2022-08-21T05:47:45;17.70;99.90
65770;DHT22;52512;47.650;8.578;2022-08-21T05:50:10;17.70;99.90
65770;DHT22;52512;47.650;8.578;2022-08-21T05:52:36;17.70;99.90
65770;DHT22;52512;47.650;8.578;2022-08-21T05:55:03;17.70;99.90
65770;DHT22;52512;47.650;8.578;2022-08-21T05:57:29;17.70;99.90
65770;DHT22;52512;47.650;8.578;2022-08-21T05:59:54;17.70;99.90
65770;DHT22;52512;47.650;8.578;2022-08-21T06:02:21;17.70;99.90
65770;DHT22;52512;47.650;8.578;2022-08-21T06:04:47;17.70;99.90
65770;DHT22;52512;47.650;8.578;2022-08-21T06:07:14;17.70;99.90
65770;DHT22;52512;47.650;8.578;2022-08-21T06:09:40;17.70;99.90
65770;DHT22;52512;47.650;8.578;2022-08-21T06:12:07;17.80;99.90
65770;DHT22;52512;47.650;8.578;2022-08-21T06:14:34;17.80;99.90
65770;DHT22;52512;47.650;8.578;2022-08-21T06:17:08;17.80;99.90
65770;DHT22;52512;47.650;8.578;2022-08-21T06:19:35;17.80;99.90
65770;DHT22;52512;47.650;8.578;2022-08-21T06:22:01;17.80;99.90
65770;DHT22;52512;47.650;8.578;2022-08-21T06:24:27;17.80;99.90
65770;DHT22;52512;47.650;8.578;2022-08-21T06:26:54;17.80;99.90
65770;DHT22;52512;47.650;8.578;2022-08-21T06:29:19;17.80;99.90
65770;DHT22;52512;47.650;8.578;2022-08-21T06:31:48;17.80;99.90
65770;DHT22;52512;47.650;8.578;2022-08-21T06:34:14;17.80;99.90
65770;DHT22;52512;47.650;8.578;2022-08-21T06:36:40;17.80;99.90
65770;DHT22;52512;47.650;8.578;2022-08-21T06:39:06;17.80;99.90
65770;DHT22;52512;47.650;8.578;2022-08-21T06:41:32;17.90;99.90
65770;DHT22;52512;47.650;8.578;2022-08-21T06:43:58;17.90;99.90
65770;DHT22;52512;47.650;8.578;2022-08-21T06:46:28;17.90;99.90
65770;DHT22;52512;47.650;8.578;2022-08-21T06:48:54;17.90;99.90
65770;DHT22;52512;47.650;8.578;2022-08-21T06:51:20;17.90;99.90
65770;DHT22;52512;47.650;8.578;2022-08-21T06:53:46;17.90;99.90
65770;DHT22;52512;47.650;8.578;2022-08-21T06:56:12;17.90;99.90
65770;DHT22;52512;47.650;8.578;2022-08-21T06:58:38;17.90;99.90
65770;DHT22;52512;47.650;8.578;2022-08-21T07:01:04;17.90;99.90
65770;DHT22;52512;47.650;8.578;2022-08-21T07:03:32;17.90;99.90
65770;DHT22;52512;47.650;8.578;2022-08-21T07:05:59;17.90;99.90
65770;DHT22;52512;47.650;8.578;2022-08-21T07:08:26;17.90;99.90
65770;DHT22;52512;47.650;8.578;2022-08-21T07:10:53;18.00;99.90
65770;DHT22;52512;47.650;8.578;2022-08-21T07:13:20;18.00;99.90
65770;DHT22;52512;47.650;8.578;2022-08-21T07:15:45;18.00;99.90
65770;DHT22;52512;47.650;8.578;2022-08-21T07:18:11;18.00;99.90
65770;DHT22;52512;47.650;8.578;2022-08-21T07:20:37;18.00;99.90
65770;DHT22;52512;47.650;8.578;2022-08-21T07:23:06;18.00;99.90
65770;DHT22;52512;47.650;8.578;2022-08-21T07:25:33;18.00;99.90
65770;DHT22;52512;47.650;8.578;2022-08-21T07:27:58;18.00;99.90
65770;DHT22;52512;47.650;8.578;2022-08-21T07:30:24;18.10;99.90
65770;DHT22;52512;47.650;8.578;2022-08-21T07:32:50;18.00;99.90
65770;DHT22;52512;47.650;8.578;2022-08-21T07:35:16;18.00;99.90
65770;DHT22;52512;47.650;8.578;2022-08-21T07:37:42;18.00;99.90
65770;DHT22;52512;47.650;8.578;2022-08-21T07:40:08;18.00;99.90
65770;DHT22;52512;47.650;8.578;2022-08-21T07:42:34;18.10;99.90
65770;DHT22;52512;47.650;8.578;2022-08-21T07:45:05;18.10;99.90
65770;DHT22;52512;47.650;8.578;2022-08-21T07:47:30;18.10;99.90
65770;DHT22;52512;47.650;8.578;2022-08-21T07:49:57;18.10;99.90
65770;DHT22;52512;47.650;8.578;2022-08-21T07:52:30;18.10;99.90
65770;DHT22;52512;47.650;8.578;2022-08-21T07:54:57;18.20;99.90
65770;DHT22;52512;47.650;8.578;2022-08-21T07:57:22;18.20;99.90
65770;DHT22;52512;47.650;8.578;2022-08-21T07:59:48;18.20;99.90
65770;DHT22;52512;47.650;8.578;2022-08-21T08:02:28;18.20;99.90
65770;DHT22;52512;47.650;8.578;2022-08-21T08:04:54;18.20;99.90
65770;DHT22;52512;47.650;8.578;2022-08-21T08:07:23;18.20;99.90
65770;DHT22;52512;47.650;8.578;2022-08-21T08:09:48;18.20;99.90
65770;DHT22;52512;47.650;8.578;2022-08-21T08:12:14;18.30;99.90
65770;DHT22;52512;47.650;8.578;2022-08-21T08:14:40;18.30;99.90
65770;DHT22;52512;47.650;8.578;2022-08-21T08:17:05;18.30;99.90
65770;DHT22;52512;47.650;8.578;2022-08-21T08:19:31;18.30;99.90
65770;DHT22;52512;47.650;8.578;2022-08-21T08:21:57;18.40;99.90
65770;DHT22;52512;47.650;8.578;2022-08-21T08:24:22;18.40;99.90
65770;DHT22;52512;47.650;8.578;2022-08-21T08:26:48;18.40;99.90
65770;DHT22;52512;47.650;8.578;2022-08-21T08:29:13;18.40;99.90
65770;DHT22;52512;47.650;8.578;2022-08-21T08:31:39;18.50;99.90
65770;DHT22;52512;47.650;8.578;2022-08-21T08:34:05;18.50;99.90
65770;DHT22;52512;47.650;8.578;2022-08-21T08:36:36;18.50;99.90
65770;DHT22;52512;47.650;8.578;2022-08-21T08:39:03;18.50;99.90
65770;DHT22;52512;47.650;8.578;2022-08-21T08:41:31;18.50;99.90
65770;DHT22;52512;47.650;8.578;2022-08-21T08:44:03;18.60;99.90
65770;DHT22;52512;47.650;8.578;2022-08-21T08:46:41;18.60;99.90
65770;DHT22;52512;47.650;8.578;2022-08-21T08:49:13;18.70;99.90
65770;DHT22;52512;47.650;8.578;2022-08-21T08:51:57;18.70;99.90
65770;DHT22;52512;47.650;8.578;2022-08-21T08:54:39;18.80;99.90
65770;DHT22;52512;47.650;8.578;2022-08-21T08:57:18;18.80;99.90
65770;DHT22;52512;47.650;8.578;2022-08-21T08:59:47;18.80;99.90
65770;DHT22;52512;47.650;8.578;2022-08-21T09:02:15;18.90;99.90
65770;DHT22;52512;47.650;8.578;2022-08-21T09:04:42;19.00;99.90
65770;DHT22;52512;47.650;8.578;2022-08-21T09:07:44;19.00;99.90
65770;DHT22;52512;47.650;8.578;2022-08-21T09:13:39;19.10;99.90
65770;DHT22;52512;47.650;8.578;2022-08-21T09:24:28;19.40;99.90
65770;DHT22;52512;47.650;8.578;2022-08-21T09:27:08;19.40;99.90
65770;DHT22;52512;47.650;8.578;2022-08-21T09:29:37;19.40;99.90
65770;DHT22;52512;47.650;8.578;2022-08-21T09:34:54;19.50;99.90
65770;DHT22;52512;47.650;8.578;2022-08-21T09:37:19;19.60;99.90
65770;DHT22;52512;47.650;8.578;2022-08-21T09:39:45;19.60;99.90
65770;DHT22;52512;47.650;8.578;2022-08-21T09:42:11;19.70;99.90
65770;DHT22;52512;47.650;8.578;2022-08-21T09:44:39;19.80;99.90
65770;DHT22;52512;47.650;8.578;2022-08-21T09:47:09;19.90;99.90
65770;DHT22;52512;47.650;8.578;2022-08-21T09:49:39;20.00;99.90
65770;DHT22;52512;47.650;8.578;2022-08-21T09:52:20;20.10;99.90
65770;DHT22;52512;47.650;8.578;2022-08-21T09:54:51;20.20;99.90
65770;DHT22;52512;47.650;8.578;2022-08-21T09:57:29;20.30;99.90
65770;DHT22;52512;47.650;8.578;2022-08-21T10:00:31;20.40;99.90
65770;DHT22;52512;47.650;8.578;2022-08-21T10:03:16;20.40;99.90
65770;DHT22;52512;47.650;8.578;2022-08-21T10:05:57;20.50;99.90
65770;DHT22;52512;47.650;8.578;2022-08-21T10:08:25;20.60;99.90
65770;DHT22;52512;47.650;8.578;2022-08-21T10:11:17;20.70;99.90
65770;DHT22;52512;47.650;8.578;2022-08-21T10:17:12;21.10;99.90
65770;DHT22;52512;47.650;8.578;2022-08-21T10:27:16;21.60;99.90
65770;DHT22;52512;47.650;8.578;2022-08-21T10:35:27;22.00;99.90
65770;DHT22;52512;47.650;8.578;2022-08-21T10:43:42;22.40;99.90
65770;DHT22;52512;47.650;8.578;2022-08-21T10:49:31;22.60;99.90
65770;DHT22;52512;47.650;8.578;2022-08-21T10:55:22;22.90;99.90
65770;DHT22;52512;47.650;8.578;2022-08-21T11:03:13;23.10;99.90
65770;DHT22;52512;47.650;8.578;2022-08-21T11:05:52;23.10;99.90
65770;DHT22;52512;47.650;8.578;2022-08-21T11:08:41;23.20;99.90
65770;DHT22;52512;47.650;8.578;2022-08-21T11:11:34;23.30;99.90
65770;DHT22;52512;47.650;8.578;2022-08-21T11:14:09;23.40;99.90
65770;DHT22;52512;47.650;8.578;2022-08-21T11:16:45;23.60;99.90
65770;DHT22;52512;47.650;8.578;2022-08-21T11:19:35;23.70;99.90
65770;DHT22;52512;47.650;8.578;2022-08-21T11:22:19;23.70;99.90
65770;DHT22;52512;47.650;8.578;2022-08-21T11:25:23;23.80;99.90
65770;DHT22;52512;47.650;8.578;2022-08-21T11:28:00;23.90;99.90
65770;DHT22;52512;47.650;8.578;2022-08-21T11:30:39;24.10;99.90
65770;DHT22;52512;47.650;8.578;2022-08-21T11:36:06;24.10;99.90
65770;DHT22;52512;47.650;8.578;2022-08-21T11:38:46;24.20;99.90
65770;DHT22;52512;47.650;8.578;2022-08-21T11:41:27;24.40;99.90
65770;DHT22;52512;47.650;8.578;2022-08-21T11:44:10;24.50;99.90
65770;DHT22;52512;47.650;8.578;2022-08-21T11:47:07;24.50;99.90
65770;DHT22;52512;47.650;8.578;2022-08-21T11:52:52;24.70;99.90
65770;DHT22;52512;47.650;8.578;2022-08-21T11:56:01;24.80;99.90
65770;DHT22;52512;47.650;8.578;2022-08-21T11:58:56;24.90;99.90
65770;DHT22;52512;47.650;8.578;2022-08-21T12:01:34;25.00;99.90
65770;DHT22;52512;47.650;8.578;2022-08-21T12:04:08;25.00;99.90
65770;DHT22;52512;47.650;8.578;2022-08-21T12:06:41;25.20;99.90
65770;DHT22;52512;47.650;8.578;2022-08-21T13:54:41;27.70;94.20
65770;DHT22;52512;47.650;8.578;2022-08-21T13:57:41;27.70;94.20
65770;DHT22;52512;47.650;8.578;2022-08-21T14:00:31;27.80;94.80
65770;DHT22;52512;47.650;8.578;2022-08-21T14:03:10;27.80;94.60
65770;DHT22;52512;47.650;8.578;2022-08-21T14:06:18;27.90;94.80
65770;DHT22;52512;47.650;8.578;2022-08-21T14:09:30;28.10;94.70
65770;DHT22;52512;47.650;8.578;2022-08-21T14:12:00;28.10;94.30
65770;DHT22;52512;47.650;8.578;2022-08-21T14:14:37;28.20;94.50
65770;DHT22;52512;47.650;8.578;2022-08-21T14:17:07;28.30;94.70
65770;DHT22;52512;47.650;8.578;2022-08-21T14:19:42;28.40;94.40
65770;DHT22;52512;47.650;8.578;2022-08-21T14:22:39;28.40;92.10
65770;DHT22;52512;47.650;8.578;2022-08-21T14:25:38;28.30;92.10
65770;DHT22;52512;47.650;8.578;2022-08-21T14:31:31;28.40;91.30
65770;DHT22;52512;47.650;8.578;2022-08-21T14:34:00;28.30;90.20
65770;DHT22;52512;47.650;8.578;2022-08-21T14:36:31;28.40;91.10
65770;DHT22;52512;47.650;8.578;2022-08-21T14:39:27;28.50;89.30
65770;DHT22;52512;47.650;8.578;2022-08-21T14:42:09;28.40;89.70
65770;DHT22;52512;47.650;8.578;2022-08-21T14:44:46;28.40;87.20
65770;DHT22;52512;47.650;8.578;2022-08-21T14:47:43;28.40;87.50
65770;DHT22;52512;47.650;8.578;2022-08-21T14:50:21;28.50;88.90
65770;DHT22;52512;47.650;8.578;2022-08-21T14:52:49;28.60;89.70
65770;DHT22;52512;47.650;8.578;2022-08-21T14:55:23;28.60;88.40
65770;DHT22;52512;47.650;8.578;2022-08-21T14:57:51;28.70;88.50
65770;DHT22;52512;47.650;8.578;2022-08-21T15:00:24;28.70;88.00
65770;DHT22;52512;47.650;8.578;2022-08-21T15:02:50;28.70;88.60
65770;DHT22;52512;47.650;8.578;2022-08-21T15:05:19;28.70;89.90
65770;DHT22;52512;47.650;8.578;2022-08-21T15:07:45;28.80;90.30
65770;DHT22;52512;47.650;8.578;2022-08-21T15:10:13;28.90;89.80
65770;DHT22;52512;47.650;8.578;2022-08-21T15:12:42;28.90;84.60
65770;DHT22;52512;47.650;8.578;2022-08-21T15:15:21;28.90;84.20
65770;DHT22;52512;47.650;8.578;2022-08-21T15:17:47;29.00;81.30
65770;DHT22;52512;47.650;8.578;2022-08-21T15:20:15;29.10;84.80
65770;DHT22;52512;47.650;8.578;2022-08-21T15:22:54;29.10;85.80
65770;DHT22;52512;47.650;8.578;2022-08-21T15:25:20;29.20;85.20
65770;DHT22;52512;47.650;8.578;2022-08-21T15:27:51;29.10;84.10
65770;DHT22;52512;47.650;8.578;2022-08-21T15:30:17;29.10;83.30
65770;DHT22;52512;47.650;8.578;2022-08-21T15:32:48;29.10;83.70
65770;DHT22;52512;47.650;8.578;2022-08-21T15:35:24;29.20;84.00
65770;DHT22;52512;47.650;8.578;2022-08-21T15:37:57;29.20;84.10
65770;DHT22;52512;47.650;8.578;2022-08-21T15:40:28;29.20;81.10
65770;DHT22;52512;47.650;8.578;2022-08-21T15:43:01;29.10;82.40
65770;DHT22;52512;47.650;8.578;2022-08-21T15:46:07;29.20;81.50
65770;DHT22;52512;47.650;8.578;2022-08-21T15:48:58;29.10;80.90
65770;DHT22;52512;47.650;8.578;2022-08-21T15:51:28;29.20;80.80
65770;DHT22;52512;47.650;8.578;2022-08-21T15:54:21;29.20;82.30
65770;DHT22;52512;47.650;8.578;2022-08-21T15:57:13;29.30;79.90
65770;DHT22;52512;47.650;8.578;2022-08-21T16:05:50;29.30;80.80
65770;DHT22;52512;47.650;8.578;2022-08-21T16:09:11;29.40;83.80
65770;DHT22;52512;47.650;8.578;2022-08-21T16:12:00;29.40;82.10
65770;DHT22;52512;47.650;8.578;2022-08-21T16:14:44;29.30;80.40
65770;DHT22;52512;47.650;8.578;2022-08-21T16:17:32;29.40;82.40
65770;DHT22;52512;47.650;8.578;2022-08-21T16:20:03;29.40;81.80
65770;DHT22;52512;47.650;8.578;2022-08-21T16:22:38;29.40;80.90
65770;DHT22;52512;47.650;8.578;2022-08-21T16:25:17;29.30;83.80
65770;DHT22;52512;47.650;8.578;2022-08-21T16:28:00;29.30;80.60
65770;DHT22;52512;47.650;8.578;2022-08-21T16:30:43;29.30;79.80
65770;DHT22;52512;47.650;8.578;2022-08-21T16:36:10;29.30;79.00
65770;DHT22;52512;47.650;8.578;2022-08-21T16:38:46;29.20;81.50
65770;DHT22;52512;47.650;8.578;2022-08-21T16:41:22;29.20;81.20
65770;DHT22;52512;47.650;8.578;2022-08-21T16:44:38;29.20;82.00
65770;DHT22;52512;47.650;8.578;2022-08-21T16:47:30;29.10;82.10
65770;DHT22;52512;47.650;8.578;2022-08-21T16:57:31;28.90;82.30
65770;DHT22;52512;47.650;8.578;2022-08-21T17:00:16;28.80;83.60
65770;DHT22;52512;47.650;8.578;2022-08-21T17:03:01;28.70;82.80
65770;DHT22;52512;47.650;8.578;2022-08-21T17:05:59;28.60;82.70
65770;DHT22;52512;47.650;8.578;2022-08-21T17:09:06;28.40;83.00
65770;DHT22;52512;47.650;8.578;2022-08-21T17:14:44;28.30;83.30
65770;DHT22;52512;47.650;8.578;2022-08-21T17:17:11;28.20;83.30
65770;DHT22;52512;47.650;8.578;2022-08-21T17:19:40;28.10;84.30
65770;DHT22;52512;47.650;8.578;2022-08-21T17:22:24;28.00;83.50
65770;DHT22;52512;47.650;8.578;2022-08-21T17:25:14;27.90;85.70
65770;DHT22;52512;47.650;8.578;2022-08-21T17:27:47;27.80;85.00
65770;DHT22;52512;47.650;8.578;2022-08-21T17:30:31;27.80;84.30
65770;DHT22;52512;47.650;8.578;2022-08-21T17:33:10;27.60;85.40
65770;DHT22;52512;47.650;8.578;2022-08-21T17:35:39;27.50;86.60
65770;DHT22;52512;47.650;8.578;2022-08-21T17:38:09;27.50;85.90
65770;DHT22;52512;47.650;8.578;2022-08-21T17:40:45;27.30;86.80
65770;DHT22;52512;47.650;8.578;2022-08-21T17:43:12;27.20;88.20
65770;DHT22;52512;47.650;8.578;2022-08-21T17:45:40;27.10;89.20
65770;DHT22;52512;47.650;8.578;2022-08-21T17:48:07;27.00;90.00
65770;DHT22;52512;47.650;8.578;2022-08-21T17:50:38;26.90;89.60
65770;DHT22;52512;47.650;8.578;2022-08-21T17:53:06;26.70;89.80
65770;DHT22;52512;47.650;8.578;2022-08-21T17:55:35;26.50;90.10
65770;DHT22;52512;47.650;8.578;2022-08-21T17:58:02;26.30;90.50
65770;DHT22;52512;47.650;8.578;2022-08-21T18:00:30;26.20;90.70
65770;DHT22;52512;47.650;8.578;2022-08-21T18:03:25;26.10;91.00
65770;DHT22;52512;47.650;8.578;2022-08-21T18:05:52;26.10;91.30
65770;DHT22;52512;47.650;8.578;2022-08-21T18:08:24;26.00;91.50
65770;DHT22;52512;47.650;8.578;2022-08-21T18:10:55;25.90;92.10
65770;DHT22;52512;47.650;8.578;2022-08-21T18:13:26;25.90;92.30
65770;DHT22;52512;47.650;8.578;2022-08-21T18:16:08;25.70;92.20
65770;DHT22;52512;47.650;8.578;2022-08-21T18:18:47;25.50;92.20
65770;DHT22;52512;47.650;8.578;2022-08-21T18:21:21;25.30;92.50
65770;DHT22;52512;47.650;8.578;2022-08-21T18:24:00;25.30;92.90
65770;DHT22;52512;47.650;8.578;2022-08-21T18:26:31;25.10;92.90
65770;DHT22;52512;47.650;8.578;2022-08-21T18:28:59;25.00;93.00
65770;DHT22;52512;47.650;8.578;2022-08-21T18:31:31;24.90;93.20
65770;DHT22;52512;47.650;8.578;2022-08-21T18:34:28;24.80;93.50
65770;DHT22;52512;47.650;8.578;2022-08-21T18:36:57;24.80;93.50
65770;DHT22;52512;47.650;8.578;2022-08-21T18:39:28;24.60;93.30
65770;DHT22;52512;47.650;8.578;2022-08-21T18:42:03;24.40;93.50
65770;DHT22;52512;47.650;8.578;2022-08-21T18:44:32;24.30;93.50
65770;DHT22;52512;47.650;8.578;2022-08-21T18:47:10;24.30;93.90
65770;DHT22;52512;47.650;8.578;2022-08-21T18:53:07;24.00;94.30
65770;DHT22;52512;47.650;8.578;2022-08-21T19:02:57;23.70;94.60
65770;DHT22;52512;47.650;8.578;2022-08-21T19:05:31;23.50;94.70
65770;DHT22;52512;47.650;8.578;2022-08-21T19:11:42;23.30;94.90
65770;DHT22;52512;47.650;8.578;2022-08-21T19:14:13;23.30;95.00
65770;DHT22;52512;47.650;8.578;2022-08-21T19:16:47;23.10;95.20
65770;DHT22;52512;47.650;8.578;2022-08-21T19:19:26;23.10;95.30